sensor_id;sensor_type;location;lat;lon;timestamp;pressure;altitude;pressure_sealevel;temperature;humidity
51261;BME280;61705;46.228;24.812;2022-12-10T00:01:54;96479.75;;;5.32;95.58
51261;BME280;61705;46.228;24.812;2022-12-10T00:04:21;96480.56;;;5.34;95.77
51261;BME280;61705;46.228;24.812;2022-12-10T00:06:48;96480.41;;;5.37;95.85
51261;BME280;61705;46.228;24.812;2022-12-10T00:09:16;96481.13;;;5.40;95.57
51261;BME280;61705;46.228;24.812;2022-12-10T00:11:43;96481.91;;;5.42;95.69
51261;BME280;61705;46.228;24.812;2022-12-10T00:14:11;96480.84;;;5.46;95.81
51261;BME280;61705;46.228;24.812;2022-12-10T00:16:38;96475.59;;;5.46;95.76
51261;BME280;61705;46.228;24.812;2022-12-10T00:19:07;96475.59;;;5.46;95.84
51261;BME280;61705;46.228;24.812;2022-12-10T00:21:35;96480.91;;;5.45;95.82
51261;BME280;61705;46.228;24.812;2022-12-10T00:24:03;96483.47;;;5.46;95.76
51261;BME280;61705;46.228;24.812;2022-12-10T00:26:38;96475.69;;;5.45;95.48
51261;BME280;61705;46.228;24.812;2022-12-10T00:29:09;96468.16;;;5.37;95.84
51261;BME280;61705;46.228;24.812;2022-12-10T00:31:37;96477.00;;;5.35;96.08
51261;BME280;61705;46.228;24.812;2022-12-10T00:34:06;96484.53;;;5.42;96.15
51261;BME280;61705;46.228;24.812;2022-12-10T00:36:44;96470.44;;;5.45;95.91
51261;BME280;61705;46.228;24.812;2022-12-10T00:39:14;96470.34;;;5.46;96.03
51261;BME280;61705;46.228;24.812;2022-12-10T00:41:41;96466.75;;;5.49;95.88
51261;BME280;61705;46.228;24.812;2022-12-10T00:44:08;96468.63;;;5.47;96.00
51261;BME280;61705;46.228;24.812;2022-12-10T00:46:35;96466.13;;;5.44;96.33
51261;BME280;61705;46.228;24.812;2022-12-10T00:49:02;96463.44;;;5.45;96.25
51261;BME280;61705;46.228;24.812;2022-12-10T00:51:30;96464.28;;;5.46;96.25
51261;BME280;61705;46.228;24.812;2022-12-10T00:53:58;96455.22;;;5.53;96.25
51261;BME280;61705;46.228;24.812;2022-12-10T00:56:27;96453.97;;;5.62;95.93
51261;BME280;61705;46.228;24.812;2022-12-10T00:58:55;96445.16;;;5.63;95.75
51261;BME280;61705;46.228;24.812;2022-12-10T01:03:50;96450.28;;;5.66;95.53
51261;BME280;61705;46.228;24.812;2022-12-10T01:06:18;96451.91;;;5.68;95.39
51261;BME280;61705;46.228;24.812;2022-12-10T01:08:46;96443.22;;;5.68;95.60
51261;BME280;61705;46.228;24.812;2022-12-10T01:11:16;96443.69;;;5.76;95.20
51261;BME280;61705;46.228;24.812;2022-12-10T01:13:44;96443.69;;;5.76;95.23
51261;BME280;61705;46.228;24.812;2022-12-10T01:16:12;96435.03;;;5.74;95.08
51261;BME280;61705;46.228;24.812;2022-12-10T01:18:40;96433.44;;;5.72;95.17
51261;BME280;61705;46.228;24.812;2022-12-10T01:21:11;96429.97;;;5.71;95.07
51261;BME280;61705;46.228;24.812;2022-12-10T01:23:39;96425.91;;;5.64;95.50
51261;BME280;61705;46.228;24.812;2022-12-10T01:26:10;96423.84;;;5.70;95.47
51261;BME280;61705;46.228;24.812;2022-12-10T01:28:39;96422.25;;;5.68;95.60
51261;BME280;61705;46.228;24.812;2022-12-10T01:31:10;96424.22;;;5.63;95.79
51261;BME280;61705;46.228;24.812;2022-12-10T01:33:38;96416.44;;;5.61;96.23
51261;BME280;61705;46.228;24.812;2022-12-10T01:36:11;96410.34;;;5.61;96.16
51261;BME280;61705;46.228;24.812;2022-12-10T01:38:38;96398.09;;;5.61;96.36
51261;BME280;61705;46.228;24.812;2022-12-10T01:41:07;96409.41;;;5.62;96.23
51261;BME280;61705;46.228;24.812;2022-12-10T01:46:19;96404.22;;;5.60;97.01
51261;BME280;61705;46.228;24.812;2022-12-10T01:48:45;96406.84;;;5.60;96.75
51261;BME280;61705;46.228;24.812;2022-12-10T01:51:14;96397.28;;;5.59;96.98
51261;BME280;61705;46.228;24.812;2022-12-10T01:53:42;96398.97;;;5.60;97.41
51261;BME280;61705;46.228;24.812;2022-12-10T01:56:10;96402.41;;;5.62;97.13
51261;BME280;61705;46.228;24.812;2022-12-10T01:58:38;96395.53;;;5.60;97.42
51261;BME280;61705;46.228;24.812;2022-12-10T02:07:28;96390.94;;;5.65;97.17
51261;BME280;61705;46.228;24.812;2022-12-10T02:10:13;96394.44;;;5.64;97.03
51261;BME280;61705;46.228;24.812;2022-12-10T02:15:50;96397.16;;;5.62;97.56
51261;BME280;61705;46.228;24.812;2022-12-10T02:18:26;96395.38;;;5.63;97.79
51261;BME280;61705;46.228;24.812;2022-12-10T02:21:03;96395.47;;;5.61;97.74
51261;BME280;61705;46.228;24.812;2022-12-10T02:23:38;96390.22;;;5.61;97.75
51261;BME280;61705;46.228;24.812;2022-12-10T02:26:15;96383.44;;;5.57;97.94
51261;BME280;61705;46.228;24.812;2022-12-10T02:29:19;96386.81;;;5.59;97.95
51261;BME280;61705;46.228;24.812;2022-12-10T02:31:42;96380.72;;;5.59;98.19
51261;BME280;61705;46.228;24.812;2022-12-10T02:34:11;96376.41;;;5.58;97.90
51261;BME280;61705;46.228;24.812;2022-12-10T02:36:42;96379.78;;;5.60;98.05
51261;BME280;61705;46.228;24.812;2022-12-10T02:39:12;96374.56;;;5.60;97.95
51261;BME280;61705;46.228;24.812;2022-12-10T02:41:45;96377.25;;;5.58;97.96
51261;BME280;61705;46.228;24.812;2022-12-10T02:44:15;96370.16;;;5.60;97.81
51261;BME280;61705;46.228;24.812;2022-12-10T02:46:44;96368.41;;;5.61;97.69
51261;BME280;61705;46.228;24.812;2022-12-10T02:49:14;96375.25;;;5.63;97.79
51261;BME280;61705;46.228;24.812;2022-12-10T02:51:42;96375.34;;;5.62;97.87
51261;BME280;61705;46.228;24.812;2022-12-10T02:54:34;96370.16;;;5.60;97.73
51261;BME280;61705;46.228;24.812;2022-12-10T02:57:13;96379.66;;;5.63;97.72
51261;BME280;61705;46.228;24.812;2022-12-10T03:02:26;96383.91;;;5.65;97.86
51261;BME280;61705;46.228;24.812;2022-12-10T03:05:18;96380.31;;;5.68;97.92
51261;BME280;61705;46.228;24.812;2022-12-10T03:13:29;96379.50;;;5.66;98.13
51261;BME280;61705;46.228;24.812;2022-12-10T03:15:59;96377.69;;;5.68;98.07
51261;BME280;61705;46.228;24.812;2022-12-10T03:18:28;96377.53;;;5.71;97.88
51261;BME280;61705;46.228;24.812;2022-12-10T03:20:58;96372.13;;;5.74;97.71
51261;BME280;61705;46.228;24.812;2022-12-10T03:23:32;96378.38;;;5.72;97.84
51261;BME280;61705;46.228;24.812;2022-12-10T03:26:01;96373.91;;;5.74;97.68
51261;BME280;61705;46.228;24.812;2022-12-10T03:28:32;96373.00;;;5.75;97.61
51261;BME280;61705;46.228;24.812;2022-12-10T03:31:02;96379.84;;;5.77;97.92
51261;BME280;61705;46.228;24.812;2022-12-10T03:33:30;96389.56;;;5.75;97.73
51261;BME280;61705;46.228;24.812;2022-12-10T03:36:00;96382.56;;;5.76;97.56
51261;BME280;61705;46.228;24.812;2022-12-10T03:38:27;96376.38;;;5.77;97.75
51261;BME280;61705;46.228;24.812;2022-12-10T03:40:57;96394.72;;;5.77;97.53
51261;BME280;61705;46.228;24.812;2022-12-10T03:43:24;96393.03;;;5.76;97.38
51261;BME280;61705;46.228;24.812;2022-12-10T03:45:50;96391.28;;;5.76;97.48
51261;BME280;61705;46.228;24.812;2022-12-10T03:48:17;96387.72;;;5.77;97.58
51261;BME280;61705;46.228;24.812;2022-12-10T03:50:44;96393.88;;;5.76;97.63
51261;BME280;61705;46.228;24.812;2022-12-10T03:53:11;96387.72;;;5.77;97.47
51261;BME280;61705;46.228;24.812;2022-12-10T03:55:37;96399.91;;;5.78;97.83
51261;BME280;61705;46.228;24.812;2022-12-10T03:58:04;96389.63;;;5.74;98.34
51261;BME280;61705;46.228;24.812;2022-12-10T04:00:31;96395.72;;;5.74;98.52
51261;BME280;61705;46.228;24.812;2022-12-10T04:03:01;96392.25;;;5.74;98.40
51261;BME280;61705;46.228;24.812;2022-12-10T04:05:27;96395.72;;;5.74;98.52
51261;BME280;61705;46.228;24.812;2022-12-10T04:07:54;96395.81;;;5.73;98.10
51261;BME280;61705;46.228;24.812;2022-12-10T04:10:21;96400.13;;;5.74;98.62
51261;BME280;61705;46.228;24.812;2022-12-10T04:12:47;96394.72;;;5.77;98.91
51261;BME280;61705;46.228;24.812;2022-12-10T04:15:38;96401.75;;;5.76;99.14
51261;BME280;61705;46.228;24.812;2022-12-10T04:18:23;96397.44;;;5.75;99.22
51261;BME280;61705;46.228;24.812;2022-12-10T04:20:49;96396.75;;;5.72;99.43
51261;BME280;61705;46.228;24.812;2022-12-10T04:23:35;96396.88;;;5.68;99.87
51261;BME280;61705;46.228;24.812;2022-12-10T04:26:19;96398.56;;;5.69;100.00
51261;BME280;61705;46.228;24.812;2022-12-10T04:29:06;96396.88;;;5.68;99.58
51261;BME280;61705;46.228;24.812;2022-12-10T04:31:33;96399.50;;;5.68;99.64
51261;BME280;61705;46.228;24.812;2022-12-10T04:34:00;96399.56;;;5.67;99.44
51261;BME280;61705;46.228;24.812;2022-12-10T04:36:27;96398.56;;;5.69;99.97
51261;BME280;61705;46.228;24.812;2022-12-10T04:38:53;96396.78;;;5.70;99.65
51261;BME280;61705;46.228;24.812;2022-12-10T04:41:20;96397.63;;;5.70;99.33
51261;BME280;61705;46.228;24.812;2022-12-10T04:43:47;96394.16;;;5.70;99.41
51261;BME280;61705;46.228;24.812;2022-12-10T04:46:13;96401.19;;;5.69;99.54
51261;BME280;61705;46.228;24.812;2022-12-10T04:48:40;96408.81;;;5.74;99.33
51261;BME280;61705;46.228;24.812;2022-12-10T04:51:07;96398.34;;;5.74;99.33
51261;BME280;61705;46.228;24.812;2022-12-10T04:53:33;96405.31;;;5.75;99.57
51261;BME280;61705;46.228;24.812;2022-12-10T04:56:00;96393.97;;;5.75;99.36
51261;BME280;61705;46.228;24.812;2022-12-10T04:58:27;96383.19;;;5.81;99.46
51261;BME280;61705;46.228;24.812;2022-12-10T05:01:05;96379.78;;;5.79;99.39
51261;BME280;61705;46.228;24.812;2022-12-10T05:03:33;96382.63;;;5.74;99.58
51261;BME280;61705;46.228;24.812;2022-12-10T05:06:04;96374.00;;;5.72;99.63
51261;BME280;61705;46.228;24.812;2022-12-10T05:08:31;96387.94;;;5.73;99.76
51261;BME280;61705;46.228;24.812;2022-12-10T05:11:12;96380.94;;;5.73;99.65
51261;BME280;61705;46.228;24.812;2022-12-10T05:13:39;96377.47;;;5.73;99.52
51261;BME280;61705;46.228;24.812;2022-12-10T05:16:09;96381.06;;;5.70;100.00
51261;BME280;61705;46.228;24.812;2022-12-10T05:18:36;96371.28;;;5.74;99.89
51261;BME280;61705;46.228;24.812;2022-12-10T05:21:05;96367.97;;;5.70;99.86
51261;BME280;61705;46.228;24.812;2022-12-10T05:23:35;96378.44;;;5.70;100.00
51261;BME280;61705;46.228;24.812;2022-12-10T05:26:05;96376.66;;;5.70;100.00
51261;BME280;61705;46.228;24.812;2022-12-10T05:28:35;96378.53;;;5.68;100.00
51261;BME280;61705;46.228;24.812;2022-12-10T05:31:03;96378.44;;;5.70;99.82
51261;BME280;61705;46.228;24.812;2022-12-10T05:33:31;96368.09;;;5.67;100.00
51261;BME280;61705;46.228;24.812;2022-12-10T05:36:02;96369.19;;;5.63;100.00
51261;BME280;61705;46.228;24.812;2022-12-10T05:38:31;96376.09;;;5.64;99.99
51261;BME280;61705;46.228;24.812;2022-12-10T05:41:06;96372.72;;;5.62;100.00
51261;BME280;61705;46.228;24.812;2022-12-10T05:43:34;96380.38;;;5.66;99.90
51261;BME280;61705;46.228;24.812;2022-12-10T05:46:01;96377.03;;;5.63;100.00
51261;BME280;61705;46.228;24.812;2022-12-10T05:48:28;96374.38;;;5.64;100.00
51261;BME280;61705;46.228;24.812;2022-12-10T05:50:55;96373.34;;;5.67;100.00
51261;BME280;61705;46.228;24.812;2022-12-10T05:53:31;96377.59;;;5.69;99.89
51261;BME280;61705;46.228;24.812;2022-12-10T05:56:03;96376.75;;;5.69;99.88
51261;BME280;61705;46.228;24.812;2022-12-10T05:58:31;96381.06;;;5.70;99.98
51261;BME280;61705;46.228;24.812;2022-12-10T06:00:58;96381.78;;;5.74;99.80
51261;BME280;61705;46.228;24.812;2022-12-10T06:03:27;96371.00;;;5.80;99.52
51261;BME280;61705;46.228;24.812;2022-12-10T06:05:54;96376.25;;;5.80;99.65
51261;BME280;61705;46.228;24.812;2022-12-10T06:08:21;96374.47;;;5.80;99.56
51261;BME280;61705;46.228;24.812;2022-12-10T06:10:47;96378.88;;;5.80;99.49
51261;BME280;61705;46.228;24.812;2022-12-10T06:13:14;96377.09;;;5.80;99.51
51261;BME280;61705;46.228;24.812;2022-12-10T06:15:52;96376.19;;;5.81;99.49
51261;BME280;61705;46.228;24.812;2022-12-10T06:18:37;96377.94;;;5.81;99.52
51261;BME280;61705;46.228;24.812;2022-12-10T06:21:06;96383.59;;;5.90;99.44
51261;BME280;61705;46.228;24.812;2022-12-10T06:23:50;96378.59;;;5.86;99.22
51261;BME280;61705;46.228;24.812;2022-12-10T06:26:22;96386.50;;;5.84;99.64
51261;BME280;61705;46.228;24.812;2022-12-10T06:28:50;96379.56;;;5.83;99.79
51261;BME280;61705;46.228;24.812;2022-12-10T06:31:17;96373.56;;;5.81;99.81
51261;BME280;61705;46.228;24.812;2022-12-10T06:33:47;96374.09;;;5.88;99.61
51261;BME280;61705;46.228;24.812;2022-12-10T06:36:18;96364.19;;;5.94;99.43
51261;BME280;61705;46.228;24.812;2022-12-10T06:38:52;96360.69;;;5.96;99.44
51261;BME280;61705;46.228;24.812;2022-12-10T06:41:19;96352.06;;;5.92;99.63
51261;BME280;61705;46.228;24.812;2022-12-10T06:43:47;96358.06;;;5.96;99.51
51261;BME280;61705;46.228;24.812;2022-12-10T06:46:16;96349.41;;;5.93;99.69
51261;BME280;61705;46.228;24.812;2022-12-10T06:48:43;96351.03;;;5.96;99.74
51261;BME280;61705;46.228;24.812;2022-12-10T06:51:11;96341.72;;;5.89;99.49
51261;BME280;61705;46.228;24.812;2022-12-10T06:53:39;96353.72;;;5.94;99.19
51261;BME280;61705;46.228;24.812;2022-12-10T06:56:07;96345.19;;;5.89;99.58
51261;BME280;61705;46.228;24.812;2022-12-10T06:58:34;96350.78;;;6.01;99.24
51261;BME280;61705;46.228;24.812;2022-12-10T07:01:06;96354.41;;;5.98;99.28
51261;BME280;61705;46.228;24.812;2022-12-10T07:03:36;96348.47;;;5.94;99.27
51261;BME280;61705;46.228;24.812;2022-12-10T07:06:06;96351.88;;;5.97;99.59
51261;BME280;61705;46.228;24.812;2022-12-10T07:08:34;96360.38;;;6.02;99.16
51261;BME280;61705;46.228;24.812;2022-12-10T07:11:04;96375.94;;;6.05;99.30
51261;BME280;61705;46.228;24.812;2022-12-10T07:13:31;96371.09;;;6.14;98.92
51261;BME280;61705;46.228;24.812;2022-12-10T07:15:58;96370.03;;;6.18;98.85
51261;BME280;61705;46.228;24.812;2022-12-10T07:18:25;96376.91;;;6.21;98.66
51261;BME280;61705;46.228;24.812;2022-12-10T07:20:52;96371.13;;;6.32;98.69
51261;BME280;61705;46.228;24.812;2022-12-10T07:23:19;96363.25;;;6.32;98.68
51261;BME280;61705;46.228;24.812;2022-12-10T07:25:46;96360.25;;;6.39;98.39
51261;BME280;61705;46.228;24.812;2022-12-10T07:28:12;96362.56;;;6.46;98.46
51261;BME280;61705;46.228;24.812;2022-12-10T07:30:39;96368.88;;;6.59;98.21
51261;BME280;61705;46.228;24.812;2022-12-10T07:33:06;96359.06;;;6.62;98.03
51261;BME280;61705;46.228;24.812;2022-12-10T07:35:33;96360.81;;;6.63;97.66
51261;BME280;61705;46.228;24.812;2022-12-10T07:37:59;96351.75;;;6.69;97.56
51261;BME280;61705;46.228;24.812;2022-12-10T07:40:26;96364.81;;;6.71;97.50
51261;BME280;61705;46.228;24.812;2022-12-10T07:42:52;96366.25;;;6.76;97.28
51261;BME280;61705;46.228;24.812;2022-12-10T07:45:19;96372.69;;;6.71;97.20
51261;BME280;61705;46.228;24.812;2022-12-10T07:47:46;96370.91;;;6.71;97.39
51261;BME280;61705;46.228;24.812;2022-12-10T07:50:13;96366.59;;;6.70;97.12
51261;BME280;61705;46.228;24.812;2022-12-10T07:52:39;96354.38;;;6.69;97.12
51261;BME280;61705;46.228;24.812;2022-12-10T07:55:06;96347.34;;;6.70;97.15
51261;BME280;61705;46.228;24.812;2022-12-10T07:57:33;96347.41;;;6.85;97.13
51261;BME280;61705;46.228;24.812;2022-12-10T07:59:59;96343.47;;;6.94;97.07
51261;BME280;61705;46.228;24.812;2022-12-10T08:02:26;96336.06;;;7.01;97.02
51261;BME280;61705;46.228;24.812;2022-12-10T08:04:53;96335.31;;;6.99;96.65
51261;BME280;61705;46.228;24.812;2022-12-10T08:07:19;96330.50;;;7.07;96.73
51261;BME280;61705;46.228;24.812;2022-12-10T08:09:46;96341.31;;;7.18;96.68
51261;BME280;61705;46.228;24.812;2022-12-10T08:12:13;96346.56;;;7.18;96.44
51261;BME280;61705;46.228;24.812;2022-12-10T08:14:39;96345.78;;;7.16;96.60
51261;BME280;61705;46.228;24.812;2022-12-10T08:17:06;96344.69;;;7.20;96.49
51261;BME280;61705;46.228;24.812;2022-12-10T08:19:33;96344.78;;;7.19;96.08
51261;BME280;61705;46.228;24.812;2022-12-10T08:21:59;96346.31;;;7.23;96.11
51261;BME280;61705;46.228;24.812;2022-12-10T08:24:26;96342.84;;;7.22;96.04
51261;BME280;61705;46.228;24.812;2022-12-10T08:26:53;96340.13;;;7.24;96.15
51261;BME280;61705;46.228;24.812;2022-12-10T08:29:19;96330.13;;;7.30;96.13
51261;BME280;61705;46.228;24.812;2022-12-10T08:31:46;96329.63;;;7.40;96.18
51261;BME280;61705;46.228;24.812;2022-12-10T08:34:15;96335.97;;;7.51;96.06
51261;BME280;61705;46.228;24.812;2022-12-10T08:36:43;96321.34;;;7.63;95.66
51261;BME280;61705;46.228;24.812;2022-12-10T08:39:10;96335.72;;;7.72;95.42
51261;BME280;61705;46.228;24.812;2022-12-10T08:41:42;96329.13;;;7.80;95.27
51261;BME280;61705;46.228;24.812;2022-12-10T08:44:11;96335.72;;;7.88;95.00
51261;BME280;61705;46.228;24.812;2022-12-10T08:46:38;96339.88;;;7.92;94.97
51261;BME280;61705;46.228;24.812;2022-12-10T08:49:05;96334.78;;;7.89;94.83
51261;BME280;61705;46.228;24.812;2022-12-10T08:51:33;96329.28;;;7.93;94.76
51261;BME280;61705;46.228;24.812;2022-12-10T08:53:59;96332.31;;;8.01;94.64
51261;BME280;61705;46.228;24.812;2022-12-10T08:56:26;96329.59;;;8.03;94.50
51261;BME280;61705;46.228;24.812;2022-12-10T08:58:53;96333.16;;;8.02;94.35
51261;BME280;61705;46.228;24.812;2022-12-10T09:01:20;96331.88;;;8.09;94.38
51261;BME280;61705;46.228;24.812;2022-12-10T09:03:46;96320.59;;;8.07;94.44
51261;BME280;61705;46.228;24.812;2022-12-10T09:06:16;96321.97;;;7.98;94.35
51261;BME280;61705;46.228;24.812;2022-12-10T09:08:45;96322.81;;;7.99;94.56
51261;BME280;61705;46.228;24.812;2022-12-10T09:13:45;96314.59;;;7.89;94.88
51261;BME280;61705;46.228;24.812;2022-12-10T09:16:12;96306.69;;;7.89;95.14
51261;BME280;61705;46.228;24.812;2022-12-10T09:18:39;96316.03;;;7.95;95.21
51261;BME280;61705;46.228;24.812;2022-12-10T09:21:07;96312.41;;;7.97;95.17
51261;BME280;61705;46.228;24.812;2022-12-10T09:23:34;96313.81;;;8.03;95.14
51261;BME280;61705;46.228;24.812;2022-12-10T09:26:05;96308.97;;;8.11;95.11
51261;BME280;61705;46.228;24.812;2022-12-10T09:28:32;96305.13;;;8.17;95.00
51261;BME280;61705;46.228;24.812;2022-12-10T09:31:00;96304.06;;;8.05;94.84
51261;BME280;61705;46.228;24.812;2022-12-10T09:33:28;96302.09;;;8.08;94.99
51261;BME280;61705;46.228;24.812;2022-12-10T09:35:55;96304.06;;;8.05;95.02
51261;BME280;61705;46.228;24.812;2022-12-10T09:38:22;96296.66;;;8.12;95.13
51261;BME280;61705;46.228;24.812;2022-12-10T09:41:00;96292.84;;;8.17;95.06
51261;BME280;61705;46.228;24.812;2022-12-10T09:43:51;96280.59;;;8.16;95.06
51261;BME280;61705;46.228;24.812;2022-12-10T09:46:56;96286.09;;;8.27;95.10
51261;BME280;61705;46.228;24.812;2022-12-10T09:52:02;96283.84;;;8.36;94.98
51261;BME280;61705;46.228;24.812;2022-12-10T09:57:24;96274.22;;;8.50;94.66
51261;BME280;61705;46.228;24.812;2022-12-10T09:59:52;96273.47;;;8.48;94.60
51261;BME280;61705;46.228;24.812;2022-12-10T10:04:52;96268.84;;;8.38;94.96
51261;BME280;61705;46.228;24.812;2022-12-10T10:07:25;96270.09;;;8.30;95.07
51261;BME280;61705;46.228;24.812;2022-12-10T10:09:56;96269.59;;;8.40;95.05
51261;BME280;61705;46.228;24.812;2022-12-10T10:12:27;96271.75;;;8.47;95.11
51261;BME280;61705;46.228;24.812;2022-12-10T10:14:54;96265.00;;;8.58;95.09
51261;BME280;61705;46.228;24.812;2022-12-10T10:17:34;96261.06;;;8.65;94.91
51261;BME280;61705;46.228;24.812;2022-12-10T10:20:02;96260.50;;;8.74;94.30
51261;BME280;61705;46.228;24.812;2022-12-10T10:22:30;96258.16;;;8.84;94.05
51261;BME280;61705;46.228;24.812;2022-12-10T10:24:57;96255.06;;;8.91;93.97
51261;BME280;61705;46.228;24.812;2022-12-10T10:27:28;96249.22;;;8.86;93.65
51261;BME280;61705;46.228;24.812;2022-12-10T10:29:57;96246.22;;;8.92;93.69
51261;BME280;61705;46.228;24.812;2022-12-10T10:35:23;96246.97;;;8.94;93.54
51261;BME280;61705;46.228;24.812;2022-12-10T10:37:52;96248.28;;;8.87;93.59
51261;BME280;61705;46.228;24.812;2022-12-10T10:43:00;96248.00;;;8.92;94.08
51261;BME280;61705;46.228;24.812;2022-12-10T10:45:48;96247.69;;;9.11;93.70
51261;BME280;61705;46.228;24.812;2022-12-10T10:48:21;96237.72;;;9.30;93.00
51261;BME280;61705;46.228;24.812;2022-12-10T10:50:51;96230.16;;;9.38;92.37
51261;BME280;61705;46.228;24.812;2022-12-10T10:56:07;96230.00;;;9.27;91.57
51261;BME280;61705;46.228;24.812;2022-12-10T10:58:36;96216.88;;;9.25;91.94
51261;BME280;61705;46.228;24.812;2022-12-10T11:01:11;96219.53;;;9.25;92.42
51261;BME280;61705;46.228;24.812;2022-12-10T11:03:46;96219.44;;;9.27;92.53
51261;BME280;61705;46.228;24.812;2022-12-10T11:06:13;96216.63;;;9.16;92.91
51261;BME280;61705;46.228;24.812;2022-12-10T11:08:43;96221.16;;;9.14;92.87
51261;BME280;61705;46.228;24.812;2022-12-10T11:11:20;96208.72;;;9.16;92.99
51261;BME280;61705;46.228;24.812;2022-12-10T11:13:49;96209.66;;;9.15;92.98
51261;BME280;61705;46.228;24.812;2022-12-10T11:16:22;96210.31;;;9.18;93.00
51261;BME280;61705;46.228;24.812;2022-12-10T11:19:01;96199.78;;;9.18;92.82
51261;BME280;61705;46.228;24.812;2022-12-10T11:21:33;96200.16;;;9.27;92.57
51261;BME280;61705;46.228;24.812;2022-12-10T11:24:10;96199.16;;;9.42;92.48
51261;BME280;61705;46.228;24.812;2022-12-10T11:27:13;96192.59;;;9.62;91.93
51261;BME280;61705;46.228;24.812;2022-12-10T11:29:51;96186.78;;;9.69;91.59
51261;BME280;61705;46.228;24.812;2022-12-10T11:32:48;96168.16;;;9.85;91.25
51261;BME280;61705;46.228;24.812;2022-12-10T11:40:38;96170.81;;;9.85;90.71
51261;BME280;61705;46.228;24.812;2022-12-10T11:49:22;96149.59;;;9.87;90.92
51261;BME280;61705;46.228;24.812;2022-12-10T12:00:23;96127.56;;;10.13;90.56
51261;BME280;61705;46.228;24.812;2022-12-10T12:05:31;96131.50;;;10.33;90.15
51261;BME280;61705;46.228;24.812;2022-12-10T12:08:12;96126.44;;;10.43;89.62
51261;BME280;61705;46.228;24.812;2022-12-10T12:11:04;96125.25;;;10.47;89.29
51261;BME280;61705;46.228;24.812;2022-12-10T12:13:55;96126.09;;;10.60;88.91
51261;BME280;61705;46.228;24.812;2022-12-10T12:16:30;96116.78;;;10.55;88.98
51261;BME280;61705;46.228;24.812;2022-12-10T12:21:36;96114.44;;;10.63;89.15
51261;BME280;61705;46.228;24.812;2022-12-10T12:24:16;96104.28;;;10.70;88.83
51261;BME280;61705;46.228;24.812;2022-12-10T12:29:30;96103.72;;;11.14;87.88
51261;BME280;61705;46.228;24.812;2022-12-10T12:32:17;96110.19;;;11.34;87.51
51261;BME280;61705;46.228;24.812;2022-12-10T12:35:00;96102.59;;;11.53;87.29
51261;BME280;61705;46.228;24.812;2022-12-10T12:37:34;96102.00;;;11.61;86.63
51261;BME280;61705;46.228;24.812;2022-12-10T12:40:12;96098.16;;;11.65;85.95
51261;BME280;61705;46.228;24.812;2022-12-10T12:42:48;96108.19;;;11.73;85.92
51261;BME280;61705;46.228;24.812;2022-12-10T12:45:39;96102.13;;;11.59;85.75
51261;BME280;61705;46.228;24.812;2022-12-10T12:53:48;96101.97;;;11.50;86.86
51261;BME280;61705;46.228;24.812;2022-12-10T13:24:25;96074.19;;;10.59;90.07
51261;BME280;61705;46.228;24.812;2022-12-10T13:35:58;96065.06;;;10.14;91.09
51261;BME280;61705;46.228;24.812;2022-12-10T13:38:40;96070.03;;;10.06;91.52
51261;BME280;61705;46.228;24.812;2022-12-10T13:41:07;96076.97;;;9.94;91.93
51261;BME280;61705;46.228;24.812;2022-12-10T13:43:57;96081.75;;;9.89;92.19
51261;BME280;61705;46.228;24.812;2022-12-10T13:49:29;96081.31;;;9.95;92.54
51261;BME280;61705;46.228;24.812;2022-12-10T13:52:05;96073.28;;;9.96;92.73
51261;BME280;61705;46.228;24.812;2022-12-10T14:00:19;96073.63;;;9.92;93.22
51261;BME280;61705;46.228;24.812;2022-12-10T14:06:08;96092.94;;;9.92;93.39
51261;BME280;61705;46.228;24.812;2022-12-10T14:08:37;96086.59;;;9.95;93.65
51261;BME280;61705;46.228;24.812;2022-12-10T14:14:46;96091.25;;;9.91;93.65
51261;BME280;61705;46.228;24.812;2022-12-10T14:17:30;96087.84;;;9.89;93.44
51261;BME280;61705;46.228;24.812;2022-12-10T14:20:00;96091.00;;;9.94;93.92
51261;BME280;61705;46.228;24.812;2022-12-10T14:23:02;96086.38;;;9.98;93.62
51261;BME280;61705;46.228;24.812;2022-12-10T14:25:47;96080.69;;;9.91;93.73
51261;BME280;61705;46.228;24.812;2022-12-10T14:28:18;96077.72;;;9.83;93.86
51261;BME280;61705;46.228;24.812;2022-12-10T14:30:48;96070.97;;;9.79;94.08
51261;BME280;61705;46.228;24.812;2022-12-10T14:33:18;96070.34;;;9.76;94.24
51261;BME280;61705;46.228;24.812;2022-12-10T14:35:50;96067.91;;;9.72;94.42
51261;BME280;61705;46.228;24.812;2022-12-10T14:38:33;96065.47;;;9.69;94.44
51261;BME280;61705;46.228;24.812;2022-12-10T14:41:02;96063.44;;;9.60;94.54
51261;BME280;61705;46.228;24.812;2022-12-10T14:43:39;96063.25;;;9.51;94.63
51261;BME280;61705;46.228;24.812;2022-12-10T14:46:14;96054.03;;;9.43;94.62
51261;BME280;61705;46.228;24.812;2022-12-10T14:48:42;96052.75;;;9.36;94.84
51261;BME280;61705;46.228;24.812;2022-12-10T14:51:15;96046.31;;;9.28;95.23
51261;BME280;61705;46.228;24.812;2022-12-10T14:53:43;96047.75;;;9.19;95.16
51261;BME280;61705;46.228;24.812;2022-12-10T14:56:13;96038.50;;;9.26;95.59
51261;BME280;61705;46.228;24.812;2022-12-10T14:58:55;96034.63;;;9.32;95.42
51261;BME280;61705;46.228;24.812;2022-12-10T15:01:29;96027.88;;;9.28;95.22
51261;BME280;61705;46.228;24.812;2022-12-10T15:04:00;96019.97;;;9.28;95.19
51261;BME280;61705;46.228;24.812;2022-12-10T15:06:28;96024.78;;;9.21;95.30
51261;BME280;61705;46.228;24.812;2022-12-10T15:08:56;;;;9.32;
51261;BME280;61705;46.228;24.812;2022-12-10T15:11:24;96030.19;;;9.32;95.32
51261;BME280;61705;46.228;24.812;2022-12-10T15:13:57;96031.03;;;9.33;95.09
51261;BME280;61705;46.228;24.812;2022-12-10T15:16:32;96033.03;;;9.29;95.38
51261;BME280;61705;46.228;24.812;2022-12-10T15:19:33;96033.13;;;9.28;95.62
51261;BME280;61705;46.228;24.812;2022-12-10T15:22:18;96035.47;;;9.32;95.66
51261;BME280;61705;46.228;24.812;2022-12-10T15:24:46;96025.25;;;9.40;95.58
51261;BME280;61705;46.228;24.812;2022-12-10T15:27:19;96020.81;;;9.54;95.39
51261;BME280;61705;46.228;24.812;2022-12-10T15:29:47;96014.41;;;9.58;95.25